Aérodrome :
LOGIN :

S'inscrire | Disclaimer

   EN    FR    IT 

 










Légende :    VFR   VFR Marginal   IFR   IFR Intensif   IFR Très Intensif
Visi : 
Plafond : 
>= 8 km
>= 3000ft
5 à 8 km
1000 à 3000 ft
1500m à 5 km
500 à 1000 ft
800 à 1500m
200 à 500 ft
< 800m
< 200 ft
Symboles :   Orages  Brouillard  Fortes neiges  Fortes précipitations  Vent > 20 kt
SIGMETs :   Divers  Orages  Givrage  Turbulence  Onde Orograph.  Cendres Volcan.







- Altitude de l'aérodrome : 659 ft
- Code IATA : LGG


EBLG - Liège

DERNIER METAR :
  • 152150Z 16016KT 7000 -FZRA BKN025 M00/M05 Q1011 TEMPO 16016G28KT 3000 -FZRA -SN

METARs EXPIRÉS :
  • 152120Z 16016G30KT 130V190 CAVOK 00/M06 Q1012 TEMPO 16016G28KT 3000 -FZRA -SN
  • 152050Z 15010KT 130V190 CAVOK M00/M06 Q1013 TEMPO 16016G28KT 3000 -FZRA -SN
  • 152020Z 16012KT CAVOK M00/M06 Q1014 TEMPO 16016G28KT 3000 -FZRA -SN
  • 151950Z 16013KT CAVOK M01/M07 Q1014 NOSIG
  • 151920Z 16012KT CAVOK M01/M06 Q1015 NOSIG

TAF TAF EBLG
Valide du 15 à 18h jusqu'au 17 à 00h UTC


151700Z 1518/1624 14010KT 9999 BKN040
TEMPO 1520/1522 -SN -FZRA
BECMG 1522/1524 3500 -SN BKN006
TEMPO 1523/1601 16016G28KT 1200 SN BKN002
PROB40
TEMPO 1601/1603 -FZRA
BECMG 1602/1604 20010KT 6000 NSW
PROB40 1604/1610 0500 FG BKN001
PROB30
TEMPO 1610/1612 4000 SHRA BKN014TCU
Pas de NOTAMs connus pour ce terrain.
4 SIGMETs publiés pour la FIR Brussels (EBBU) :
 
Turbulence forte
EBBU SIGMET 08 VALID 152200/160200 EBBR
EBBU BRUSSELS FIR SEV TURB FCST EAST OF E00330 SFC/FL050 MOV NE 15KT NC=
Givrage fort
EBBU SIGMET 07 VALID 151930/152330 EBBR
EBBU BRUSSELS FIR SEV ICE FCST ENTIRE FIR FL060/180 MOV NE 15KT NC=
Givrage fort avec pluie surfondue
EBBU SIGMET 05 VALID 151900/152300 EBBR
EBBU BRUSSELS FIR SEV ICE (FZRA) OBS ENTIRE FIR SFC/FL020 MOV NE 15KT NC=
Turbulence forte
EBBU SIGMET 04 VALID 151800/152200 EBBR
EBBU BRUSSELS FIR SEV TURB FCST SW OF LINE N5112 E00257 - N5015 E00441 SFC/FL050 MOV NE 15KT NC=



MET'MAP, la Météo Aéronautique d'un coup d'oeil ! - Copyright ORBIFLY Décembre 2007 - Disclaimer

ORBIFLY MET'MAP TEAM :

Programmation & Développement : Alexandra Zaïnal
Conception & Développement : Baudouin d'Aumeries
Co-Programmation & Développement : Marc-Olivier Méhu
Soutien technique & logistique : Manuel Goepfert

Contact : metmap@orbifly.com




SOURCES & CREDITS :

   NOAA